Time;durP1;ratioP1;P1;durP2;ratioP2;P2;SDS_P1;SDS_P2;PMS_P1;PMS_P2;Temp;Humidity;BMP_temperature;BMP_pressure;BME280_temperature;BME280_humidity;BME280_pressure;Samples;Min_cycle;Max_cycle;Signal;HPM_P1;HPM_P2
2023/06/06 00:00:07;;;;;;;2.83;1.90;;;;;;;19.80;62.75;101457.63;5011775;28;20034;-92
2023/06/06 00:02:33;;;;;;;1.85;1.30;;;;;;;20.09;62.79;101497.47;5011446;28;20060;-92
2023/06/06 00:05:00;;;;;;;5.28;1.80;;;;;;;20.01;63.16;101506.75;5011712;28;20030;-90
2023/06/06 00:07:28;;;;;;;3.72;1.70;;;;;;;19.89;63.45;101493.69;4995630;28;20057;-90
2023/06/06 00:09:54;;;;;;;5.53;1.85;;;;;;;19.93;62.90;101498.59;4979363;28;20451;-90
2023/06/06 00:12:20;;;;;;;3.13;1.55;;;;;;;20.01;62.99;101505.91;4995211;28;20030;-92
2023/06/06 00:14:46;;;;;;;3.90;1.58;;;;;;;19.85;61.14;101500.13;5011636;28;20499;-91
2023/06/06 00:17:12;;;;;;;2.80;1.90;;;;;;;19.78;60.68;101505.00;5011175;28;20042;-90
2023/06/06 00:19:42;;;;;;;2.72;1.67;;;;;;;19.71;60.36;101493.28;5011418;28;20096;-91
2023/06/06 00:22:08;;;;;;;2.83;1.65;;;;;;;19.76;60.69;101502.50;4995292;28;20026;-91
2023/06/06 00:24:33;;;;;;;5.35;1.92;;;;;;;19.82;60.90;101500.34;5011217;28;20025;-92
2023/06/06 00:26:58;;;;;;;3.38;1.77;;;;;;;19.82;60.52;101495.94;5011338;28;20034;-89
2023/06/06 00:29:24;;;;;;;3.55;1.60;;;;;;;19.81;60.66;101503.94;5012167;28;20041;-89
2023/06/06 00:31:49;;;;;;;4.18;1.45;;;;;;;19.70;61.49;101495.06;4994820;28;20030;-90
2023/06/06 00:34:15;;;;;;;4.07;1.70;;;;;;;19.63;60.85;101504.31;4978555;28;20034;-93
2023/06/06 00:36:40;;;;;;;3.15;1.60;;;;;;;19.63;60.69;101493.81;4994247;28;20064;-90
2023/06/06 00:39:06;;;;;;;2.15;1.38;;;;;;;19.61;61.09;101503.59;4994437;28;20088;-90
2023/06/06 00:41:32;;;;;;;9.27;1.55;;;;;;;19.64;61.32;101503.38;4994651;28;20030;-90
2023/06/06 00:43:57;;;;;;;2.42;1.40;;;;;;;19.59;61.15;101500.25;5010657;28;20411;-92
2023/06/06 00:46:23;;;;;;;3.22;1.48;;;;;;;19.51;61.37;101506.97;4994395;28;20030;-89
2023/06/06 00:48:48;;;;;;;2.40;1.50;;;;;;;19.49;61.51;101493.97;4994426;28;20083;-90
2023/06/06 00:51:15;;;;;;;3.78;1.65;;;;;;;19.46;61.18;101500.25;4993947;28;20510;-91
2023/06/06 00:53:41;;;;;;;3.10;1.75;;;;;;;19.45;60.93;101493.34;4994563;28;20027;-90
2023/06/06 00:56:07;;;;;;;4.88;1.73;;;;;;;19.38;60.72;101496.53;4994429;28;20026;-92
2023/06/06 00:58:32;;;;;;;5.32;1.55;;;;;;;19.29;61.12;101492.78;4978054;28;20027;-91
2023/06/06 01:00:57;;;;;;;7.53;1.58;;;;;;;19.33;61.15;101493.41;5010324;28;20038;-91
2023/06/06 01:03:24;;;;;;;3.30;1.52;;;;;;;19.29;61.48;101491.94;5010813;28;20034;-90
2023/06/06 01:05:53;;;;;;;4.90;1.77;;;;;;;19.25;61.80;101495.72;4994140;28;20506;-90
2023/06/06 01:08:19;;;;;;;1.90;1.38;;;;;;;19.08;62.05;101474.19;5011549;28;20022;-91
2023/06/06 01:10:45;;;;;;;3.65;1.50;;;;;;;19.26;62.26;101492.16;5010603;28;20050;-91
2023/06/06 01:13:33;;;;;;;2.47;1.52;;;;;;;19.27;61.86;101494.69;4994188;28;20483;-89
2023/06/06 01:16:02;;;;;;;4.93;1.73;;;;;;;19.25;62.10;101493.94;4995243;28;20499;-91
2023/06/06 01:18:29;;;;;;;2.80;1.40;;;;;;;19.15;62.15;101492.91;5010146;28;20129;-89
2023/06/06 01:20:55;;;;;;;4.03;1.38;;;;;;;19.16;62.26;101499.84;4993901;28;20396;-90
2023/06/06 01:23:20;;;;;;;4.10;1.60;;;;;;;19.13;61.96;101487.78;4977786;28;20545;-93
2023/06/06 01:25:49;;;;;;;2.25;1.30;;;;;;;19.24;62.04;101491.44;4977897;28;20034;-90
2023/06/06 01:28:17;;;;;;;4.15;1.50;;;;;;;19.20;62.32;101488.19;4978579;28;20030;-90
2023/06/06 01:30:43;;;;;;;2.45;1.50;;;;;;;19.26;61.90;101502.66;5011543;28;20499;-91
2023/06/06 01:33:24;;;;;;;2.38;1.35;;;;;;;19.11;62.04;101494.09;5010032;28;20037;-90
2023/06/06 01:35:52;;;;;;;2.17;1.20;;;;;;;19.25;61.84;101503.59;5010256;28;20029;-90
2023/06/06 01:38:24;;;;;;;4.22;1.35;;;;;;;19.13;61.75;101481.72;5011332;28;20029;-89
2023/06/06 01:40:51;;;;;;;2.45;1.45;;;;;;;19.10;61.74;101497.66;4997384;28;20377;-91
2023/06/06 01:43:16;;;;;;;5.15;1.50;;;;;;;19.02;62.02;101495.59;5016296;28;20041;-90
2023/06/06 01:45:42;;;;;;;2.50;1.40;;;;;;;19.00;61.69;101489.63;4984208;28;20022;-90
2023/06/06 01:48:07;;;;;;;2.65;1.50;;;;;;;18.86;61.99;101477.47;5000461;28;20403;-88
2023/06/06 01:50:33;;;;;;;3.25;1.60;;;;;;;19.03;61.60;101497.25;5016476;28;20056;-90
2023/06/06 01:52:58;;;;;;;2.55;1.38;;;;;;;19.07;61.92;101508.34;5000194;28;20037;-92
2023/06/06 01:55:24;;;;;;;2.13;1.38;;;;;;;19.09;61.52;101509.09;5016645;28;20041;-90
2023/06/06 01:57:49;;;;;;;3.22;1.33;;;;;;;19.11;61.40;101510.66;5000204;28;20064;-90
2023/06/06 02:00:16;;;;;;;2.83;1.50;;;;;;;18.97;61.73;101508.16;5000270;28;20061;-91
2023/06/06 02:02:41;;;;;;;2.50;1.48;;;;;;;18.98;62.15;101507.25;5016543;28;20109;-89
2023/06/06 02:05:07;;;;;;;3.58;1.15;;;;;;;19.10;62.14;101519.50;4999658;28;20041;-90
2023/06/06 02:07:34;;;;;;;2.25;1.38;;;;;;;19.04;62.01;101530.41;5016533;28;20487;-89
2023/06/06 02:10:01;;;;;;;7.35;1.42;;;;;;;18.97;62.04;101518.66;5000504;28;20029;-90
2023/06/06 02:12:26;;;;;;;1.77;1.10;;;;;;;19.03;61.91;101526.09;5000511;28;20026;-91
2023/06/06 02:14:54;;;;;;;2.20;1.50;;;;;;;19.03;62.39;101520.84;5016078;28;20514;-91
2023/06/06 02:17:19;;;;;;;3.72;1.50;;;;;;;18.97;62.13;101516.03;5016239;28;20033;-90
2023/06/06 02:19:46;;;;;;;4.70;1.30;;;;;;;18.99;62.14;101521.19;4983508;28;20029;-90
2023/06/06 02:22:11;;;;;;;1.52;1.05;;;;;;;18.95;61.99;101530.19;5000301;28;20025;-89
2023/06/06 02:24:36;;;;;;;2.47;1.40;;;;;;;18.97;61.98;101534.38;4983732;28;20034;-90
2023/06/06 02:27:03;;;;;;;3.10;1.30;;;;;;;18.96;61.57;101532.72;4999956;28;20080;-90
2023/06/06 02:29:29;;;;;;;2.20;1.20;;;;;;;18.91;61.94;101534.84;5000009;28;20034;-89
2023/06/06 02:31:54;;;;;;;1.83;1.13;;;;;;;18.75;61.55;101511.44;5000124;28;20026;-90
2023/06/06 02:34:21;;;;;;;2.60;1.17;;;;;;;18.83;61.40;101526.66;5017255;28;20554;-90
2023/06/06 02:36:49;;;;;;;1.90;1.30;;;;;;;18.69;61.28;101535.47;5016371;28;20026;-92
2023/06/06 02:39:14;;;;;;;3.67;1.08;;;;;;;18.53;61.27;101513.84;5016188;28;20033;-90
2023/06/06 02:41:40;;;;;;;2.63;1.13;;;;;;;18.52;61.45;101533.97;5016443;28;20030;-90
2023/06/06 02:44:06;;;;;;;1.60;0.90;;;;;;;18.54;61.95;101539.09;4999868;28;20506;-91
2023/06/06 02:46:31;;;;;;;1.20;0.90;;;;;;;18.54;61.60;101536.47;4999830;28;20022;-92
2023/06/06 02:48:57;;;;;;;2.15;1.10;;;;;;;18.54;61.43;101523.38;5015883;28;20487;-90
2023/06/06 02:51:23;;;;;;;2.20;1.17;;;;;;;18.65;61.55;101541.03;4999081;28;20076;-90
2023/06/06 02:53:49;;;;;;;1.98;1.25;;;;;;;18.67;61.32;101541.75;4996734;28;20026;-90
2023/06/06 02:56:16;;;;;;;1.77;1.00;;;;;;;18.55;61.54;101532.91;4996620;28;20025;-90
2023/06/06 02:58:42;;;;;;;1.83;1.10;;;;;;;18.71;61.80;101549.31;5012810;28;20034;-92
2023/06/06 03:01:09;;;;;;;3.30;1.40;;;;;;;18.65;62.17;101554.13;4996643;28;20408;-90
2023/06/06 03:03:34;;;;;;;2.97;1.23;;;;;;;18.65;62.00;101544.47;5013939;28;20029;-89
2023/06/06 03:06:00;;;;;;;2.42;1.10;;;;;;;18.75;62.05;101568.28;5012687;28;20037;-91
2023/06/06 03:08:26;;;;;;;1.83;1.17;;;;;;;18.67;61.78;101563.56;4996482;28;20029;-89
2023/06/06 03:10:51;;;;;;;4.75;1.27;;;;;;;18.76;61.79;101573.41;4979951;28;20026;-87
2023/06/06 03:13:17;;;;;;;4.03;1.20;;;;;;;18.82;61.95;101559.91;4996191;28;20420;-87
2023/06/06 03:15:46;;;;;;;3.63;1.30;;;;;;;18.74;62.04;101574.47;4995700;28;20069;-87
2023/06/06 03:18:16;;;;;;;6.05;1.30;;;;;;;18.75;62.41;101566.50;4995948;28;20037;-86
2023/06/06 03:20:44;;;;;;;3.70;1.30;;;;;;;18.85;62.01;101567.53;4980707;28;20033;-87
2023/06/06 03:23:11;;;;;;;4.57;1.25;;;;;;;18.80;62.66;101584.53;4995788;28;20048;-86
2023/06/06 03:25:37;;;;;;;1.92;1.35;;;;;;;18.78;62.82;101568.94;4995783;28;20391;-88
2023/06/06 03:28:02;;;;;;;2.00;1.27;;;;;;;18.81;62.50;101583.59;4995673;28;20030;-87
2023/06/06 03:30:28;;;;;;;1.92;1.17;;;;;;;18.73;62.45;101576.25;4995301;28;20072;-87
2023/06/06 03:32:55;;;;;;;2.72;1.48;;;;;;;18.81;62.39;101571.34;4995570;28;20487;-87
2023/06/06 03:35:21;;;;;;;2.60;1.30;;;;;;;18.72;62.29;101571.13;5011578;28;20163;-86
2023/06/06 03:37:47;;;;;;;3.25;1.35;;;;;;;18.87;61.63;101585.78;5011427;28;20025;-87
2023/06/06 03:40:12;;;;;;;1.83;1.27;;;;;;;18.91;61.48;101597.75;5011498;28;20033;-88
2023/06/06 03:42:38;;;;;;;6.28;1.17;;;;;;;18.73;60.99;101567.56;5005926;28;20061;-88
2023/06/06 03:45:05;;;;;;;2.20;1.30;;;;;;;18.84;61.21;101592.09;5011231;28;20450;-88
2023/06/06 03:47:30;;;;;;;8.27;1.40;;;;;;;18.76;61.97;101593.53;5011465;28;20056;-88
2023/06/06 03:49:56;;;;;;;3.35;1.38;;;;;;;18.76;61.64;101598.78;5011383;28;20030;-89
2023/06/06 03:52:22;;;;;;;2.67;1.10;;;;;;;18.75;61.60;101595.34;5011240;28;20038;-89
2023/06/06 03:54:47;;;;;;;1.77;1.17;;;;;;;18.66;61.31;101585.47;4978888;28;20060;-87
2023/06/06 03:57:13;;;;;;;2.15;1.20;;;;;;;18.49;61.95;101575.28;5011349;28;20056;-89
2023/06/06 03:59:39;;;;;;;2.30;1.10;;;;;;;18.56;61.72;101592.25;5010958;28;20025;-88
2023/06/06 04:02:05;;;;;;;3.50;1.27;;;;;;;18.57;61.47;101607.84;4978783;28;20034;-89
2023/06/06 04:04:30;;;;;;;1.80;1.13;;;;;;;18.54;60.44;101604.63;4978161;28;20025;-90
2023/06/06 04:06:57;;;;;;;2.42;1.13;;;;;;;18.33;60.16;101592.00;5010898;28;20411;-91
2023/06/06 04:09:23;;;;;;;2.00;1.00;;;;;;;18.39;59.90;101616.97;5012426;28;20034;-92
2023/06/06 04:11:48;;;;;;;1.95;0.85;;;;;;;18.32;58.89;101599.97;4994843;28;20442;-90
2023/06/06 04:14:14;;;;;;;2.80;0.90;;;;;;;18.36;59.66;101617.16;5013226;28;20068;-89
2023/06/06 04:16:40;;;;;;;1.80;1.10;;;;;;;18.32;59.02;101611.28;5016366;28;20507;-85
2023/06/06 04:19:06;;;;;;;2.53;0.85;;;;;;;18.24;59.15;101617.97;4992614;28;20117;-88
2023/06/06 04:21:32;;;;;;;1.67;0.88;;;;;;;18.19;59.26;101620.03;4994262;28;20125;-92
2023/06/06 04:23:58;;;;;;;2.17;1.00;;;;;;;18.01;59.18;101599.34;4993777;28;20072;-92
2023/06/06 04:26:24;;;;;;;1.25;0.90;;;;;;;18.04;59.51;101612.22;5011968;28;20029;-86
2023/06/06 04:28:52;;;;;;;2.30;0.95;;;;;;;18.13;59.55;101620.44;4995070;28;20034;-91
2023/06/06 04:31:19;;;;;;;1.55;0.90;;;;;;;18.31;60.69;101627.09;4975701;28;20037;-88
2023/06/06 04:33:44;;;;;;;2.15;0.90;;;;;;;18.21;58.38;101605.91;5010947;28;20038;-90
2023/06/06 04:36:11;;;;;;;5.55;1.00;;;;;;;18.08;58.52;101601.56;4995261;28;20499;-87
2023/06/06 04:38:37;;;;;;;1.65;0.90;;;;;;;18.26;58.71;101631.78;5012830;28;20049;-92
2023/06/06 04:41:02;;;;;;;1.45;1.05;;;;;;;18.20;59.46;101637.44;4978247;28;20038;-89
2023/06/06 04:43:28;;;;;;;3.78;1.20;;;;;;;18.17;59.57;101627.16;5008189;28;20030;-94
2023/06/06 04:45:53;;;;;;;1.58;0.98;;;;;;;18.17;59.06;101629.75;5008994;28;20463;-88
2023/06/06 04:48:19;;;;;;;2.60;1.00;;;;;;;18.26;59.17;101634.41;4978738;28;20030;-87
2023/06/06 04:50:49;;;;;;;1.30;0.88;;;;;;;18.32;59.65;101626.16;4970906;28;20448;-88
2023/06/06 04:53:14;;;;;;;3.58;1.63;;;;;;;18.45;58.16;101642.75;4993682;28;20113;-93
2023/06/06 04:55:40;;;;;;;1.75;1.02;;;;;;;18.37;58.33;101641.56;4955563;28;20085;-89
2023/06/06 04:58:06;;;;;;;2.47;1.00;;;;;;;18.40;57.32;101639.59;4988428;28;20109;-90
2023/06/06 05:00:32;;;;;;;2.42;1.77;;;;;;;18.37;58.37;101634.53;4988725;28;20041;-89
2023/06/06 05:02:58;;;;;;;4.82;1.27;;;;;;;18.47;58.30;101640.84;4989536;28;20026;-89
2023/06/06 05:05:24;;;;;;;1.42;1.00;;;;;;;18.43;57.65;101628.91;4992775;28;20113;-91
2023/06/06 05:07:50;;;;;;;2.22;0.82;;;;;;;18.50;57.17;101634.59;5010911;28;20042;-89
2023/06/06 05:10:15;;;;;;;2.45;1.23;;;;;;;18.57;57.59;101646.31;4994545;28;20088;-91
2023/06/06 05:12:41;;;;;;;1.75;0.95;;;;;;;18.54;57.02;101639.50;4994438;28;20045;-92
2023/06/06 05:15:07;;;;;;;1.88;0.98;;;;;;;18.62;57.11;101642.47;4978431;28;20026;-94
2023/06/06 05:17:33;;;;;;;1.45;0.90;;;;;;;18.55;56.04;101622.84;5011219;28;20045;-90
2023/06/06 05:19:58;;;;;;;2.08;1.10;;;;;;;18.60;56.79;101651.38;4996451;28;20086;-94
2023/06/06 05:22:24;;;;;;;1.70;1.02;;;;;;;18.60;56.66;101628.63;4994755;28;20030;-95
2023/06/06 05:24:50;;;;;;;1.85;0.90;;;;;;;18.62;55.68;101639.00;4993517;28;20030;-93
2023/06/06 05:27:15;;;;;;;2.95;0.93;;;;;;;18.56;56.18;101648.09;4990951;28;20042;-88
2023/06/06 05:29:41;;;;;;;3.47;1.95;;;;;;;18.58;56.04;101648.88;4996075;28;20034;-90
2023/06/06 05:32:08;;;;;;;4.90;2.95;;;;;;;18.53;56.38;101648.31;4984141;28;20053;-91
2023/06/06 05:34:34;;;;;;;1.48;0.88;;;;;;;18.51;55.46;101646.75;4986175;28;20042;-91
2023/06/06 05:37:00;;;;;;;1.80;0.90;;;;;;;18.54;55.88;101644.75;4982671;28;20026;-92
2023/06/06 05:39:26;;;;;;;2.58;1.02;;;;;;;18.60;55.44;101652.22;4988109;28;20038;-90
2023/06/06 05:41:54;;;;;;;3.17;0.98;;;;;;;18.68;55.42;101648.25;5005830;28;20022;-84
2023/06/06 05:44:22;;;;;;;1.70;0.90;;;;;;;18.80;55.00;101645.69;4987234;28;20034;-87
2023/06/06 05:46:53;;;;;;;1.65;0.95;;;;;;;18.81;54.80;101659.63;4972610;28;20023;-91
2023/06/06 05:49:19;;;;;;;1.48;1.17;;;;;;;18.73;53.08;101651.44;4958061;28;20034;-84
2023/06/06 05:51:45;;;;;;;1.83;1.05;;;;;;;18.73;54.01;101670.63;4975320;28;20108;-89
2023/06/06 05:54:14;;;;;;;2.70;1.45;;;;;;;18.62;53.72;101639.84;4989251;28;20041;-89
2023/06/06 05:56:40;;;;;;;1.52;0.90;;;;;;;18.71;54.42;101658.56;4971663;28;20480;-88
2023/06/06 05:59:05;;;;;;;3.90;0.90;;;;;;;18.73;54.43;101662.75;4988443;28;20038;-88
2023/06/06 06:01:31;;;;;;;1.30;1.00;;;;;;;18.75;53.94;101670.50;4987648;28;20037;-88
2023/06/06 06:03:57;;;;;;;1.95;1.08;;;;;;;18.91;54.14;101681.66;4956766;28;20030;-89
2023/06/06 06:06:23;;;;;;;1.65;0.98;;;;;;;18.98;53.64;101672.44;4989230;28;20133;-92
2023/06/06 06:08:49;;;;;;;3.63;1.15;;;;;;;19.24;53.71;101688.19;4989523;28;20484;-88
2023/06/06 06:11:15;;;;;;;3.00;1.20;;;;;;;19.24;53.15;101683.75;4973296;28;20111;-93
2023/06/06 06:13:41;;;;;;;3.78;1.20;;;;;;;19.18;52.88;101685.03;4953448;28;20039;-87
2023/06/06 06:16:10;;;;;;;1.73;1.10;;;;;;;19.23;51.84;101686.50;4973904;28;20070;-95
2023/06/06 06:18:36;;;;;;;1.77;1.15;;;;;;;19.29;51.26;101680.84;4966889;28;20027;-91
2023/06/06 06:21:02;;;;;;;3.30;1.35;;;;;;;19.39;51.36;101687.97;4990028;28;20105;-89
2023/06/06 06:23:28;;;;;;;2.58;1.48;;;;;;;19.56;53.32;101688.59;4972031;28;20409;-91
2023/06/06 06:25:54;;;;;;;2.70;1.33;;;;;;;19.54;50.46;101680.81;4989395;28;20046;-89
2023/06/06 06:28:21;;;;;;;3.03;1.38;;;;;;;19.57;50.89;101685.88;4995561;28;20127;-92
2023/06/06 06:30:46;;;;;;;1.20;0.80;;;;;;;19.45;50.02;101665.69;4975603;28;20026;-89
2023/06/06 06:33:12;;;;;;;1.23;0.90;;;;;;;19.41;50.54;101675.56;4974600;28;20037;-88
2023/06/06 06:35:40;;;;;;;3.65;1.10;;;;;;;19.46;51.46;101672.63;4996155;28;20103;-88
2023/06/06 06:38:06;;;;;;;3.08;1.27;;;;;;;19.49;51.17;101672.44;4978001;28;20041;-91
2023/06/06 06:40:31;;;;;;;1.52;0.98;;;;;;;19.40;51.66;101683.56;4994578;28;20031;-93
2023/06/06 06:42:57;;;;;;;2.95;1.25;;;;;;;19.60;52.43;101680.41;4977145;28;20022;-93
2023/06/06 06:45:23;;;;;;;1.77;1.13;;;;;;;19.75;51.86;101684.56;4992846;28;20035;-91
2023/06/06 06:47:49;;;;;;;1.60;1.00;;;;;;;19.67;50.41;101681.69;4975210;28;20026;-90
2023/06/06 06:50:14;;;;;;;4.75;2.42;;;;;;;19.67;52.71;101681.69;4958084;28;20050;-92
2023/06/06 06:52:41;;;;;;;2.15;1.10;;;;;;;19.60;52.41;101667.28;4976918;28;20049;-87
2023/06/06 06:55:07;;;;;;;1.60;0.90;;;;;;;19.66;51.17;101668.63;4992205;28;20484;-84
2023/06/06 06:57:33;;;;;;;2.20;1.20;;;;;;;19.67;50.96;101684.28;4990030;28;20033;-88
2023/06/06 06:59:59;;;;;;;5.97;1.40;;;;;;;19.72;51.28;101679.53;4975218;28;20062;-88
2023/06/06 07:02:28;;;;;;;4.20;1.20;;;;;;;19.63;50.74;101667.06;4959198;28;20018;-87
2023/06/06 07:04:54;;;;;;;2.88;1.35;;;;;;;19.81;51.34;101667.56;4979839;28;20050;-93
2023/06/06 07:07:20;;;;;;;1.73;0.93;;;;;;;19.84;51.35;101669.94;4994522;28;20797;-91
2023/06/06 07:09:46;;;;;;;1.85;0.98;;;;;;;19.95;51.22;101674.44;4996364;28;20229;-94
2023/06/06 07:12:12;;;;;;;2.10;1.05;;;;;;;20.07;51.03;101673.56;4997534;28;20034;-93
2023/06/06 07:14:38;;;;;;;1.88;1.00;;;;;;;20.25;50.75;101679.25;4976628;28;20038;-90
2023/06/06 07:17:05;;;;;;;3.10;1.77;;;;;;;20.43;50.33;101679.72;4992134;28;20313;-89
2023/06/06 07:19:30;;;;;;;20.70;10.60;;;;;;;20.43;50.28;101664.81;4976186;28;20030;-88
2023/06/06 07:21:56;;;;;;;12.27;7.43;;;;;;;20.69;48.71;101677.81;4992690;28;20528;-92
2023/06/06 07:24:25;;;;;;;4.82;2.80;;;;;;;20.68;48.20;101684.03;4993765;28;20049;-93
2023/06/06 07:26:51;;;;;;;2.00;1.25;;;;;;;20.80;49.55;101683.09;4993046;28;20027;-91
2023/06/06 07:29:18;;;;;;;2.85;1.10;;;;;;;20.95;49.28;101675.84;4997453;28;20076;-91
2023/06/06 07:31:43;;;;;;;1.90;1.20;;;;;;;21.22;49.07;101683.41;4976669;28;20197;-88
2023/06/06 07:34:09;;;;;;;2.15;1.20;;;;;;;21.33;48.61;101684.28;4992770;28;20471;-88
2023/06/06 07:36:36;;;;;;;5.43;1.30;;;;;;;21.62;49.41;101686.44;4980628;28;20030;-91
2023/06/06 07:39:02;;;;;;;5.45;1.00;;;;;;;21.62;48.13;101686.44;4976285;28;20031;-91
2023/06/06 07:41:30;;;;;;;2.45;1.02;;;;;;;21.48;47.46;101683.09;4980435;28;20045;-90
2023/06/06 07:43:55;;;;;;;1.73;1.13;;;;;;;21.31;48.28;101677.47;4993233;28;20023;-93
2023/06/06 07:46:21;;;;;;;2.65;1.33;;;;;;;21.38;49.17;101673.41;4973084;28;20037;-91
2023/06/06 07:48:46;;;;;;;5.07;1.30;;;;;;;21.33;47.96;101679.00;4993981;28;20026;-88
2023/06/06 07:51:12;;;;;;;1.35;0.88;;;;;;;21.47;48.98;101681.44;4983065;28;20054;-93
2023/06/06 07:53:37;;;;;;;2.95;1.20;;;;;;;21.55;47.99;101682.63;4983160;28;20045;-94
2023/06/06 07:56:03;;;;;;;1.20;0.88;;;;;;;21.51;47.83;101689.91;4959668;28;20034;-94
2023/06/06 07:58:42;;;;;;;1.92;1.00;;;;;;;21.37;48.62;101667.31;4977477;28;20026;-94
2023/06/06 08:01:11;;;;;;;2.15;0.82;;;;;;;21.47;47.66;101686.69;4991257;28;20034;-88
2023/06/06 08:03:36;;;;;;;2.35;1.33;;;;;;;21.65;50.12;101681.78;4990964;28;20026;-88
2023/06/06 08:06:02;;;;;;;1.85;1.05;;;;;;;21.73;48.31;101689.09;4996770;28;20026;-95
2023/06/06 08:08:28;;;;;;;2.25;1.48;;;;;;;21.71;50.12;101670.75;4980579;28;20030;-91
2023/06/06 08:10:53;;;;;;;2.72;1.23;;;;;;;21.80;47.17;101690.25;4994176;28;20065;-93
2023/06/06 08:13:22;;;;;;;3.70;1.15;;;;;;;21.77;47.68;101690.50;4998218;28;20117;-93
2023/06/06 08:15:47;;;;;;;2.83;1.40;;;;;;;21.79;45.90;101693.00;4997884;28;20046;-92
2023/06/06 08:18:13;;;;;;;2.88;1.02;;;;;;;21.88;47.90;101689.66;4991190;28;20085;-87
2023/06/06 08:20:38;;;;;;;7.60;4.50;;;;;;;22.17;47.62;101692.63;4988949;28;20080;-94
2023/06/06 08:23:04;;;;;;;9.73;6.05;;;;;;;22.16;45.99;101648.78;4991651;28;20030;-92
2023/06/06 08:25:30;;;;;;;3.08;1.50;;;;;;;22.52;46.60;101695.03;4991460;28;20503;-93
2023/06/06 08:27:58;;;;;;;1.85;1.00;;;;;;;22.50;45.35;101673.19;4987821;28;20022;-92
2023/06/06 08:30:23;;;;;;;2.20;0.95;;;;;;;22.53;43.30;101689.63;4992064;28;20093;-90
2023/06/06 08:32:50;;;;;;;1.92;1.20;;;;;;;22.43;45.63;101688.69;4990111;28;20023;-88
2023/06/06 08:35:15;;;;;;;1.65;0.98;;;;;;;22.44;44.88;101689.53;4972752;28;20048;-87
2023/06/06 08:37:41;;;;;;;1.70;1.00;;;;;;;22.45;43.82;101681.50;4990410;28;20034;-87
2023/06/06 08:40:25;;;;;;;3.50;1.20;;;;;;;22.33;46.55;101651.72;4989881;28;20038;-89
2023/06/06 08:42:52;;;;;;;2.72;1.30;;;;;;;22.46;44.47;101693.72;4990076;28;20029;-90
2023/06/06 08:45:21;;;;;;;1.83;1.20;;;;;;;22.17;45.08;101682.06;4987841;28;20113;-83
2023/06/06 08:47:48;;;;;;;3.60;1.10;;;;;;;22.16;45.56;101654.03;4969448;28;20476;-85
2023/06/06 08:50:14;;;;;;;1.85;1.08;;;;;;;22.20;45.98;101644.91;4989163;28;20066;-88
2023/06/06 08:52:40;;;;;;;2.13;1.30;;;;;;;22.43;44.77;101667.59;4978152;28;20050;-86
2023/06/06 08:55:06;;;;;;;2.53;1.23;;;;;;;22.50;43.89;101646.81;4973303;28;20023;-89
2023/06/06 08:57:41;;;;;;;4.03;1.30;;;;;;;22.65;43.92;101661.38;4992854;28;20116;-93
2023/06/06 09:00:11;;;;;;;3.05;1.23;;;;;;;22.96;42.31;101659.66;4971208;28;20026;-86
2023/06/06 09:02:46;;;;;;;4.55;1.80;;;;;;;23.02;43.51;101663.59;4984920;28;20022;-89
2023/06/06 09:05:12;;;;;;;3.53;1.67;;;;;;;22.94;40.45;101666.88;4986676;28;20049;-92
2023/06/06 09:07:38;;;;;;;2.53;1.60;;;;;;;22.81;41.15;101637.16;4973696;28;20034;-88
2023/06/06 09:10:05;;;;;;;5.45;1.88;;;;;;;23.08;41.67;101655.13;4989647;28;20542;-91
2023/06/06 09:12:39;;;;;;;7.30;3.10;;;;;;;23.36;39.99;101654.44;4985962;28;20033;-93
2023/06/06 09:15:06;;;;;;;11.80;7.28;;;;;;;23.48;39.69;101652.53;4989484;28;20092;-85
2023/06/06 09:17:35;;;;;;;4.05;2.15;;;;;;;23.30;40.30;101620.63;4987456;28;20130;-92
2023/06/06 09:20:01;;;;;;;4.18;1.60;;;;;;;23.53;39.70;101652.97;4958808;28;20022;-92
2023/06/06 09:22:27;;;;;;;6.13;1.83;;;;;;;23.65;41.23;101651.09;4982780;28;20030;-90
2023/06/06 09:24:56;;;;;;;3.90;1.60;;;;;;;23.54;40.79;101644.06;5000160;28;20389;-91
2023/06/06 09:27:29;;;;;;;2.15;1.02;;;;;;;23.70;39.83;101654.19;4990535;28;20508;-89
2023/06/06 09:29:54;;;;;;;2.15;1.20;;;;;;;23.54;39.29;101622.13;4992238;28;20022;-92
2023/06/06 09:32:29;;;;;;;3.00;1.17;;;;;;;23.49;40.52;101630.41;4993715;28;20041;-94
2023/06/06 09:35:03;;;;;;;5.22;1.30;;;;;;;23.57;39.00;101617.38;4968955;28;20105;-92
2023/06/06 09:37:28;;;;;;;2.60;1.00;;;;;;;23.74;39.20;101632.63;4964744;28;20065;-86
2023/06/06 09:40:16;;;;;;;1.90;1.20;;;;;;;23.89;37.40;101640.13;4991847;28;20415;-89
2023/06/06 09:42:43;;;;;;;4.25;1.23;;;;;;;23.84;36.80;101623.88;4983756;28;20088;-91
2023/06/06 09:45:16;;;;;;;2.15;0.95;;;;;;;23.95;37.05;101624.56;4987183;28;20026;-89
2023/06/06 09:47:42;;;;;;;3.58;1.02;;;;;;;23.93;37.85;101628.34;4987425;28;20037;-93
2023/06/06 09:50:08;;;;;;;3.55;1.20;;;;;;;23.91;38.38;101622.38;4972900;28;20027;-90
2023/06/06 09:52:33;;;;;;;2.20;1.42;;;;;;;24.20;37.35;101635.59;4968588;28;20101;-89
2023/06/06 09:54:59;;;;;;;2.60;1.23;;;;;;;24.47;36.82;101633.09;4987717;28;20029;-93
2023/06/06 09:57:24;;;;;;;3.25;1.48;;;;;;;24.78;37.26;101631.09;4987734;28;20418;-94
2023/06/06 09:59:50;;;;;;;3.15;1.23;;;;;;;24.98;36.42;101612.53;4961217;28;20026;-93
2023/06/06 10:02:16;;;;;;;2.00;1.20;;;;;;;25.09;37.38;101620.31;4958651;28;20099;-93
2023/06/06 10:04:42;;;;;;;4.90;1.33;;;;;;;25.19;37.11;101618.47;4968951;28;20069;-94
2023/06/06 10:07:08;;;;;;;3.70;1.42;;;;;;;25.41;37.62;101617.22;4992098;28;20050;-92
2023/06/06 10:09:34;;;;;;;2.63;1.30;;;;;;;25.54;36.86;101601.81;4977657;28;20041;-90
2023/06/06 10:11:59;;;;;;;3.20;1.02;;;;;;;25.65;37.04;101601.59;4964700;28;20491;-91
2023/06/06 10:14:26;;;;;;;1.63;1.02;;;;;;;25.58;35.93;101586.47;4963060;28;20042;-93
2023/06/06 10:16:52;;;;;;;3.45;1.10;;;;;;;25.57;36.75;101575.03;4981529;28;20088;-93
2023/06/06 10:19:17;;;;;;;2.28;1.50;;;;;;;25.80;36.81;101586.06;4963453;28;20459;-91
2023/06/06 10:21:43;;;;;;;2.35;1.00;;;;;;;25.97;36.38;101597.66;4974066;28;20039;-92
2023/06/06 10:24:08;;;;;;;2.28;1.30;;;;;;;25.78;36.11;101576.59;4992313;28;20086;-92
2023/06/06 10:26:56;;;;;;;2.63;1.27;;;;;;;25.69;35.94;101594.19;4992237;28;20023;-91
2023/06/06 10:29:30;;;;;;;6.00;1.50;;;;;;;25.80;37.38;101593.19;4983863;28;20796;-92
2023/06/06 10:32:16;;;;;;;3.05;1.27;;;;;;;25.52;36.08;101561.38;4993575;28;20121;-92
2023/06/06 10:34:44;;;;;;;3.65;1.20;;;;;;;25.52;35.64;101565.84;4986918;28;20094;-95
2023/06/06 10:37:14;;;;;;;4.10;1.05;;;;;;;25.56;36.29;101588.41;4958614;28;20042;-94
2023/06/06 10:39:41;;;;;;;2.63;1.10;;;;;;;25.44;35.65;101575.38;4949512;28;20034;-95
2023/06/06 10:42:07;;;;;;;1.67;0.90;;;;;;;25.56;35.55;101583.09;4958940;28;20105;-92
2023/06/06 10:44:37;;;;;;;1.98;1.10;;;;;;;25.44;35.50;101579.84;4964481;28;20101;-92
2023/06/06 10:47:21;;;;;;;12.77;8.73;;;;;;;25.55;35.57;101573.50;4979438;28;20041;-91
2023/06/06 10:50:09;;;;;;;2.55;1.42;;;;;;;25.65;35.26;101574.25;4996601;28;20027;-90
2023/06/06 10:53:09;;;;;;;1.70;1.05;;;;;;;25.59;35.91;101569.59;4979236;28;20507;-90
2023/06/06 10:55:44;;;;;;;2.55;1.17;;;;;;;25.64;35.36;101567.31;4970066;28;20038;-88
2023/06/06 10:58:16;;;;;;;1.77;1.02;;;;;;;25.62;34.80;101572.75;4959319;28;20116;-93
2023/06/06 11:00:43;;;;;;;3.33;1.15;;;;;;;25.64;34.57;101570.78;4975634;28;20030;-93
2023/06/06 11:03:13;;;;;;;2.10;1.00;;;;;;;25.82;34.88;101567.34;4973945;28;20019;-94
2023/06/06 11:06:00;;;;;;;3.33;1.10;;;;;;;25.92;34.57;101568.94;4956986;28;20034;-87
2023/06/06 11:08:56;;;;;;;2.20;1.42;;;;;;;25.78;35.21;101561.53;4985391;28;20412;-88
2023/06/06 11:11:29;;;;;;;2.00;1.17;;;;;;;26.01;35.78;101557.41;4991481;28;20039;-89
2023/06/06 11:14:02;;;;;;;2.10;1.10;;;;;;;26.02;34.49;101550.28;4995178;28;20101;-91
2023/06/06 11:16:39;;;;;;;2.83;1.00;;;;;;;25.95;34.89;101544.75;4961365;28;20526;-92
2023/06/06 11:19:08;;;;;;;3.38;1.60;;;;;;;25.93;35.60;101520.22;4992751;28;20169;-90
2023/06/06 11:21:37;;;;;;;5.05;2.97;;;;;;;26.32;35.51;101543.72;4996766;28;20601;-92
2023/06/06 11:24:04;;;;;;;2.50;1.63;;;;;;;26.40;35.06;101535.84;4957316;28;20035;-92